Terminal Aerodrome Forecast
Issued by NWS Bismarck, ND

Home | Current Version | Previous Version | Text Only | Print | Product List | Glossary Off
Versions: 1 2 3 4 5 6 7 8 9 10 11 12 13 14 15 16 17 18 19 20

000
FTUS43 KBIS 242200 AAA
TAFBIS
TAF AMD
KBIS 242206Z 2422/2518 07006KT P6SM -SN SCT025 OVC040
      TEMPO 2422/2502 3SM -SN OVC025
     FM250200 09010KT 2SM -SN BR OVC015=

USA.gov is the U.S. government's official web portal to all federal, state and local government web resources and services.